createdAt,value
2023-08-12T00:01:18.934Z,12.65
2023-08-12T00:03:45.753Z,12.40
2023-08-12T00:06:12.557Z,11.32
2023-08-12T00:08:39.299Z,11.60
2023-08-12T00:11:06.040Z,12.93
2023-08-12T00:13:32.753Z,13.50
2023-08-12T00:15:59.817Z,12.43
2023-08-12T00:18:26.689Z,13.63
2023-08-12T00:20:53.764Z,11.93
2023-08-12T00:23:20.519Z,11.25
2023-08-12T00:25:47.301Z,11.38
2023-08-12T00:28:14.486Z,10.75
2023-08-12T00:30:41.351Z,10.38
2023-08-12T00:33:08.108Z,10.88
2023-08-12T00:35:34.824Z,12.38
2023-08-12T00:38:01.548Z,8.82
2023-08-12T00:40:28.357Z,10.18
2023-08-12T00:42:55.060Z,9.23
2023-08-12T00:45:21.909Z,11.13
2023-08-12T00:47:48.890Z,11.45
2023-08-12T00:50:16.477Z,11.13
2023-08-12T00:52:43.602Z,10.60
2023-08-12T00:55:10.884Z,11.38
2023-08-12T00:57:37.852Z,10.18
2023-08-12T01:00:05.403Z,9.35
2023-08-12T01:02:32.443Z,10.35
2023-08-12T01:05:00.127Z,10.40
2023-08-12T01:07:27.184Z,11.80
2023-08-12T01:09:54.247Z,10.20
2023-08-12T01:12:45.483Z,10.43
2023-08-12T01:15:17.100Z,10.88
2023-08-12T01:17:44.642Z,10.75
2023-08-12T01:20:15.963Z,8.65
2023-08-12T01:22:45.539Z,8.52
2023-08-12T01:25:12.317Z,8.35
2023-08-12T01:27:39.052Z,7.97
2023-08-12T01:30:07.637Z,7.85
2023-08-12T01:32:59.278Z,7.55
2023-08-12T01:35:41.778Z,7.38
2023-08-12T01:38:09.756Z,6.55
2023-08-12T01:40:39.685Z,6.63
2023-08-12T01:43:07.244Z,7.38
2023-08-12T01:45:34.210Z,6.53
2023-08-12T01:48:00.909Z,5.00
2023-08-12T01:50:27.684Z,5.22
2023-08-12T01:52:54.393Z,5.60
2023-08-12T01:55:21.152Z,4.60
2023-08-12T01:57:47.842Z,4.18
2023-08-12T02:00:16.291Z,4.35
2023-08-12T02:02:43.214Z,4.22
2023-08-12T02:05:10.006Z,4.22
2023-08-12T02:07:36.697Z,10.07
2023-08-12T02:10:03.436Z,4.18
2023-08-12T02:12:30.162Z,4.68
2023-08-12T02:14:56.878Z,3.95
2023-08-12T02:17:23.602Z,5.50
2023-08-12T02:19:50.274Z,4.38
2023-08-12T02:22:16.994Z,4.20
2023-08-12T02:24:44.055Z,4.45
2023-08-12T02:27:10.957Z,4.28
2023-08-12T02:29:37.848Z,4.25
2023-08-12T02:32:04.862Z,4.53
2023-08-12T02:34:31.637Z,4.70
2023-08-12T02:37:01.473Z,5.72
2023-08-12T02:39:28.189Z,4.43
2023-08-12T02:41:54.907Z,4.88
2023-08-12T02:44:21.707Z,4.65
2023-08-12T02:46:48.366Z,4.57
2023-08-12T02:49:15.106Z,4.80
2023-08-12T02:51:41.854Z,4.22
2023-08-12T02:54:08.524Z,4.20
2023-08-12T02:56:35.286Z,5.43
2023-08-12T02:59:02.049Z,4.80
2023-08-12T03:01:28.927Z,4.80
2023-08-12T03:03:55.688Z,4.22
2023-08-12T03:06:22.572Z,4.53
2023-08-12T03:09:01.286Z,4.72
2023-08-12T03:11:28.048Z,4.40
2023-08-12T03:13:54.938Z,4.75
2023-08-12T03:16:21.697Z,4.30
2023-08-12T03:18:48.434Z,4.25
2023-08-12T03:21:15.275Z,4.60
2023-08-12T03:23:41.988Z,4.68
2023-08-12T03:26:20.465Z,7.38
2023-08-12T03:28:47.226Z,5.63
2023-08-12T03:31:13.950Z,4.95
2023-08-12T03:33:40.758Z,5.30
2023-08-12T03:36:07.647Z,4.18
2023-08-12T03:38:34.347Z,4.82
2023-08-12T03:41:01.091Z,5.85
2023-08-12T03:43:27.759Z,3.97
2023-08-12T03:45:54.498Z,5.10
2023-08-12T03:48:21.200Z,4.65
2023-08-12T03:50:48.750Z,6.03
2023-08-12T03:53:15.486Z,4.63
2023-08-12T03:55:43.013Z,4.55
2023-08-12T03:58:09.769Z,4.22
2023-08-12T04:00:36.539Z,4.22
2023-08-12T04:03:03.492Z,4.32
2023-08-12T04:05:30.297Z,4.32
2023-08-12T04:07:57.022Z,4.30
2023-08-12T04:10:23.725Z,4.82
2023-08-12T04:12:59.330Z,5.05
2023-08-12T04:15:26.131Z,6.75
2023-08-12T04:17:53.104Z,5.13
2023-08-12T04:20:19.932Z,6.07
2023-08-12T04:22:49.041Z,4.63
2023-08-12T04:25:16.890Z,5.22
2023-08-12T04:27:43.787Z,4.53
2023-08-12T04:30:10.822Z,4.40
2023-08-12T04:32:37.620Z,4.38
2023-08-12T04:35:04.636Z,4.45
2023-08-12T04:37:33.229Z,3.97
2023-08-12T04:40:00.225Z,6.07
2023-08-12T04:42:26.958Z,5.72
2023-08-12T04:45:02.239Z,3.67
2023-08-12T04:47:30.025Z,4.50
2023-08-12T04:49:56.871Z,5.07
2023-08-12T04:52:23.582Z,5.38
2023-08-12T04:54:53.687Z,4.28
2023-08-12T04:57:20.442Z,4.03
2023-08-12T04:59:47.152Z,4.60
2023-08-12T05:02:14.517Z,3.88
2023-08-12T05:04:41.829Z,4.32
2023-08-12T05:07:08.719Z,4.10
2023-08-12T05:09:35.563Z,4.13
2023-08-12T05:12:02.272Z,5.35
2023-08-12T05:14:28.983Z,6.05
2023-08-12T05:16:55.718Z,4.38
2023-08-12T05:19:22.464Z,5.40
2023-08-12T05:21:49.196Z,4.82
2023-08-12T05:24:16.461Z,4.88
2023-08-12T05:26:43.536Z,4.50
2023-08-12T05:29:10.527Z,3.95
2023-08-12T05:31:37.417Z,3.78
2023-08-12T05:34:04.334Z,5.43
2023-08-12T05:36:31.046Z,4.78
2023-08-12T05:38:57.752Z,7.13
2023-08-12T05:41:24.443Z,5.70
2023-08-12T05:43:51.345Z,4.63
2023-08-12T05:46:18.273Z,4.50
2023-08-12T05:48:45.137Z,4.97
2023-08-12T05:51:11.900Z,5.72
2023-08-12T05:53:39.249Z,5.35
2023-08-12T05:56:06.312Z,5.45
2023-08-12T05:58:33.098Z,5.43
2023-08-12T06:01:00.228Z,5.25
2023-08-12T06:03:27.147Z,5.10
2023-08-12T06:05:54.411Z,4.57
2023-08-12T06:08:21.100Z,6.03
2023-08-12T06:10:47.858Z,5.43
2023-08-12T06:13:15.049Z,5.35
2023-08-12T06:15:41.797Z,10.48
2023-08-12T06:18:08.641Z,6.35
2023-08-12T06:20:35.473Z,4.93
2023-08-12T06:23:02.348Z,7.03
2023-08-12T06:25:29.225Z,4.68
2023-08-12T06:27:56.044Z,5.18
2023-08-12T06:30:22.855Z,8.10
2023-08-12T06:32:49.666Z,3.88
2023-08-12T06:35:16.711Z,5.72
2023-08-12T06:37:43.458Z,5.78
2023-08-12T06:40:10.533Z,6.88
2023-08-12T06:42:37.348Z,4.97
2023-08-12T06:45:05.332Z,4.88
2023-08-12T06:47:32.542Z,6.47
2023-08-12T06:49:59.400Z,4.25
2023-08-12T06:52:26.179Z,5.13
2023-08-12T06:54:52.917Z,7.63
2023-08-12T06:57:19.710Z,6.30
2023-08-12T06:59:46.431Z,5.03
2023-08-12T07:02:13.678Z,5.85
2023-08-12T07:04:40.582Z,6.85
2023-08-12T07:07:07.350Z,5.28
2023-08-12T07:09:34.097Z,4.72
2023-08-12T07:12:01.942Z,4.82
2023-08-12T07:14:29.408Z,5.00
2023-08-12T07:16:56.202Z,5.70
2023-08-12T07:19:23.786Z,4.93
2023-08-12T07:21:50.597Z,4.97
2023-08-12T07:24:17.334Z,6.82
2023-08-12T07:26:44.061Z,4.25
2023-08-12T07:29:11.052Z,4.65
2023-08-12T07:31:37.812Z,5.20
2023-08-12T07:34:04.676Z,6.15
2023-08-12T07:36:31.377Z,5.60
2023-08-12T07:38:58.099Z,4.60
2023-08-12T07:41:28.518Z,4.93
2023-08-12T07:43:55.376Z,4.70
2023-08-12T07:46:22.121Z,5.97
2023-08-12T07:48:48.833Z,4.60
2023-08-12T07:51:15.978Z,5.15
2023-08-12T07:53:42.699Z,5.60
2023-08-12T07:56:09.945Z,5.00
2023-08-12T07:58:36.671Z,5.57
2023-08-12T08:01:03.354Z,5.55
2023-08-12T08:03:30.070Z,5.68
2023-08-12T08:05:56.899Z,5.43
2023-08-12T08:08:23.627Z,4.30
2023-08-12T08:10:50.371Z,5.43
2023-08-12T08:13:17.048Z,5.40
2023-08-12T08:15:43.898Z,4.85
2023-08-12T08:18:10.696Z,4.45
2023-08-12T08:20:37.537Z,4.28
2023-08-12T08:23:04.513Z,5.57
2023-08-12T08:25:31.407Z,4.72
2023-08-12T08:27:58.188Z,4.38
2023-08-12T08:30:26.433Z,5.38
2023-08-12T08:32:53.464Z,5.30
2023-08-12T08:35:20.247Z,5.35
2023-08-12T08:37:46.960Z,4.07
2023-08-12T08:40:13.822Z,5.50
2023-08-12T08:42:40.626Z,4.88
2023-08-12T08:45:13.408Z,5.60
2023-08-12T08:47:40.835Z,5.45
2023-08-12T08:50:08.113Z,5.20
2023-08-12T08:52:34.829Z,4.80
2023-08-12T08:55:04.258Z,5.18
2023-08-12T08:57:47.394Z,4.90
2023-08-12T09:00:17.579Z,4.80
2023-08-12T09:02:47.757Z,3.58
2023-08-12T09:05:15.844Z,5.07
2023-08-12T09:07:46.099Z,4.97
2023-08-12T09:10:15.319Z,4.90
2023-08-12T09:12:43.977Z,5.00
2023-08-12T09:15:11.152Z,5.70
2023-08-12T09:17:38.045Z,5.15
2023-08-12T09:20:10.115Z,4.47
2023-08-12T09:22:36.831Z,5.57
2023-08-12T09:25:05.698Z,5.78
2023-08-12T09:27:34.136Z,5.90
2023-08-12T09:30:04.751Z,4.70
2023-08-12T09:32:31.503Z,5.85
2023-08-12T09:34:58.417Z,3.78
2023-08-12T09:37:25.838Z,4.53
2023-08-12T09:39:53.233Z,5.07
2023-08-12T09:42:20.247Z,4.38
2023-08-12T09:44:47.640Z,5.57
2023-08-12T09:47:14.628Z,5.15
2023-08-12T09:49:41.802Z,4.88
2023-08-12T09:52:09.986Z,5.05
2023-08-12T09:54:36.908Z,4.00
2023-08-12T09:57:05.631Z,4.72
2023-08-12T10:02:00.944Z,4.45
2023-08-12T10:04:44.306Z,5.47
2023-08-12T10:07:11.324Z,5.13
2023-08-12T10:09:38.858Z,6.05
2023-08-12T10:12:07.253Z,5.88
2023-08-12T10:14:34.789Z,6.05
2023-08-12T10:17:05.124Z,5.43
2023-08-12T10:19:33.282Z,5.72
2023-08-12T10:22:00.539Z,4.60
2023-08-12T10:24:28.287Z,4.90
2023-08-12T10:26:55.357Z,4.45
2023-08-12T10:29:24.232Z,5.38
2023-08-12T10:31:50.999Z,5.75
2023-08-12T10:34:25.884Z,4.15
2023-08-12T10:37:02.588Z,5.47
2023-08-12T10:39:33.648Z,5.68
2023-08-12T10:42:00.691Z,4.55
2023-08-12T10:44:28.736Z,5.30
2023-08-12T10:46:55.879Z,5.20
2023-08-12T10:49:23.299Z,5.57
2023-08-12T10:51:50.929Z,4.15
2023-08-12T10:54:31.053Z,4.38
2023-08-12T10:57:06.909Z,5.85
2023-08-12T11:00:02.722Z,3.38
2023-08-12T11:02:31.923Z,4.00
2023-08-12T11:05:03.256Z,5.22
2023-08-12T11:07:53.025Z,4.38
2023-08-12T11:10:21.114Z,3.80
2023-08-12T11:12:53.710Z,4.50
2023-08-12T11:15:33.740Z,5.10
2023-08-12T11:18:08.492Z,4.70
2023-08-12T11:20:36.007Z,3.28
2023-08-12T11:23:03.936Z,3.58
2023-08-12T11:25:31.613Z,4.15
2023-08-12T11:27:58.676Z,3.75
2023-08-12T11:30:27.194Z,3.45
2023-08-12T11:32:56.073Z,2.60
2023-08-12T11:35:23.968Z,4.35
2023-08-12T11:37:54.291Z,4.13
2023-08-12T11:40:21.375Z,3.55
2023-08-12T11:42:49.547Z,3.05
2023-08-12T11:45:21.785Z,5.15
2023-08-12T11:47:53.758Z,3.35
2023-08-12T11:50:22.985Z,3.65
2023-08-12T11:52:51.463Z,3.13
2023-08-12T11:55:18.436Z,3.63
2023-08-12T11:57:46.960Z,4.20
2023-08-12T12:00:15.669Z,2.75
2023-08-12T12:02:47.992Z,3.65
2023-08-12T12:05:15.105Z,3.15
2023-08-12T12:07:42.393Z,4.13
2023-08-12T12:10:09.627Z,3.85
2023-08-12T12:12:36.961Z,4.05
2023-08-12T12:15:04.964Z,3.65
2023-08-12T12:17:31.951Z,2.85
2023-08-12T12:20:00.855Z,3.85
2023-08-12T12:22:31.895Z,2.92
2023-08-12T12:25:10.060Z,3.97
2023-08-12T12:27:38.712Z,4.93
2023-08-12T12:30:06.236Z,5.00
2023-08-12T12:32:33.123Z,4.28
2023-08-12T12:34:59.860Z,4.78
2023-08-12T12:37:26.622Z,3.05
2023-08-12T12:39:53.340Z,3.33
2023-08-12T12:42:20.061Z,4.88
2023-08-12T12:44:46.769Z,4.70
2023-08-12T12:47:13.592Z,3.70
2023-08-12T12:49:42.626Z,3.55
2023-08-12T12:52:09.328Z,2.97
2023-08-12T12:54:36.079Z,2.90
2023-08-12T12:57:02.779Z,4.65
2023-08-12T12:59:29.466Z,3.30
2023-08-12T13:01:56.206Z,3.20
2023-08-12T13:04:23.445Z,3.20
2023-08-12T13:06:50.227Z,3.38
2023-08-12T13:09:17.134Z,4.55
2023-08-12T13:11:43.883Z,3.45
2023-08-12T13:14:10.677Z,3.90
2023-08-12T13:16:37.423Z,3.25
2023-08-12T13:19:04.433Z,4.70
2023-08-12T13:21:31.198Z,4.55
2023-08-12T13:23:58.033Z,3.63
2023-08-12T13:26:24.747Z,3.40
2023-08-12T13:28:51.440Z,3.80
2023-08-12T13:31:18.266Z,3.03
2023-08-12T13:33:45.112Z,4.30
2023-08-12T13:36:11.843Z,3.30
2023-08-12T13:38:38.599Z,4.00
2023-08-12T13:41:05.358Z,4.65
2023-08-12T13:43:32.120Z,5.35
2023-08-12T13:45:58.917Z,3.10
2023-08-12T13:48:25.635Z,3.53
2023-08-12T13:50:53.476Z,4.50
2023-08-12T13:53:20.948Z,4.55
2023-08-12T13:55:47.806Z,2.90
2023-08-12T13:58:14.495Z,2.90
2023-08-12T14:00:41.243Z,3.72
2023-08-12T14:03:07.979Z,4.65
2023-08-12T14:05:35.270Z,3.25
2023-08-12T14:08:02.291Z,2.95
2023-08-12T14:10:29.076Z,3.22
2023-08-12T14:12:55.839Z,3.33
2023-08-12T14:15:22.570Z,2.60
2023-08-12T14:17:49.356Z,4.57
2023-08-12T14:20:16.604Z,4.28
2023-08-12T14:22:45.093Z,3.28
2023-08-12T14:25:12.703Z,3.08
2023-08-12T14:27:39.496Z,2.92
2023-08-12T14:30:06.886Z,3.10
2023-08-12T14:32:33.602Z,4.75
2023-08-12T14:35:00.461Z,2.78
2023-08-12T14:37:29.004Z,3.95
2023-08-12T14:39:56.332Z,4.20
2023-08-12T14:42:23.044Z,6.10
2023-08-12T14:44:50.088Z,4.45
2023-08-12T14:47:16.889Z,4.40
2023-08-12T14:49:43.657Z,2.90
2023-08-12T14:52:20.799Z,3.35
2023-08-12T14:54:48.159Z,3.42
2023-08-12T14:57:15.436Z,2.90
2023-08-12T14:59:42.375Z,4.65
2023-08-12T15:02:09.090Z,3.30
2023-08-12T15:04:36.364Z,3.47
2023-08-12T15:07:03.330Z,3.13
2023-08-12T15:09:30.695Z,3.08
2023-08-12T15:11:57.581Z,3.40
2023-08-12T15:14:24.408Z,3.83
2023-08-12T15:16:51.199Z,5.30
2023-08-12T15:19:18.143Z,4.40
2023-08-12T15:21:44.859Z,3.40
2023-08-12T15:24:11.762Z,4.10
2023-08-12T15:26:38.494Z,3.58
2023-08-12T15:29:05.575Z,3.63
2023-08-12T15:31:32.369Z,3.42
2023-08-12T15:33:59.132Z,3.83
2023-08-12T15:36:25.914Z,3.45
2023-08-12T15:38:52.720Z,5.07
2023-08-12T15:41:19.512Z,3.88
2023-08-12T15:43:46.371Z,5.28
2023-08-12T15:46:13.466Z,3.35
2023-08-12T15:48:40.620Z,7.25
2023-08-12T15:51:07.390Z,4.78
2023-08-12T15:53:34.156Z,3.53
2023-08-12T15:56:01.579Z,4.00
2023-08-12T15:58:28.374Z,4.45
2023-08-12T16:00:55.197Z,3.78
2023-08-12T16:03:22.107Z,3.63
2023-08-12T16:05:49.959Z,4.57
2023-08-12T16:08:17.830Z,3.70
2023-08-12T16:10:44.654Z,3.83
2023-08-12T16:13:11.528Z,3.90
2023-08-12T16:15:38.402Z,4.30
2023-08-12T16:18:06.057Z,5.05
2023-08-12T16:20:32.975Z,4.90
2023-08-12T16:22:59.964Z,4.00
2023-08-12T16:25:26.826Z,3.45
2023-08-12T16:27:53.633Z,5.13
2023-08-12T16:30:20.377Z,3.72
2023-08-12T16:32:47.089Z,3.90
2023-08-12T16:35:13.896Z,5.38
2023-08-12T16:37:40.680Z,6.45
2023-08-12T16:40:08.099Z,4.07
2023-08-12T16:42:34.870Z,5.47
2023-08-12T16:45:01.677Z,5.93
2023-08-12T16:47:30.554Z,6.15
2023-08-12T16:49:58.979Z,6.10
2023-08-12T16:52:25.759Z,5.88
2023-08-12T16:54:52.469Z,5.80
2023-08-12T16:57:19.263Z,5.40
2023-08-12T16:59:45.984Z,3.70
2023-08-12T17:02:13.056Z,3.65
2023-08-12T17:04:40.330Z,4.22
2023-08-12T17:07:07.363Z,6.18
2023-08-12T17:09:34.788Z,7.97
2023-08-12T17:12:02.429Z,17.60
2023-08-12T17:14:30.755Z,4.38
2023-08-12T17:16:57.985Z,5.68
2023-08-12T17:19:25.162Z,6.05
2023-08-12T17:21:51.912Z,5.43
2023-08-12T17:24:18.641Z,6.22
2023-08-12T17:26:45.383Z,4.85
2023-08-12T17:29:12.098Z,4.65
2023-08-12T17:31:38.881Z,4.95
2023-08-12T17:34:05.667Z,5.35
2023-08-12T17:36:32.365Z,6.05
2023-08-12T17:38:59.134Z,3.97
2023-08-12T17:41:25.880Z,4.22
2023-08-12T17:43:52.753Z,9.75
2023-08-12T17:46:19.461Z,4.50
2023-08-12T17:48:46.270Z,4.55
2023-08-12T17:51:16.609Z,5.13
2023-08-12T17:53:45.786Z,4.60
2023-08-12T17:56:13.294Z,6.10
2023-08-12T17:58:40.702Z,5.93
2023-08-12T18:01:07.645Z,5.03
2023-08-12T18:03:34.622Z,5.50
2023-08-12T18:06:05.593Z,4.80
2023-08-12T18:08:33.209Z,5.75
2023-08-12T18:11:01.172Z,5.47
2023-08-12T18:13:27.971Z,6.00
2023-08-12T18:15:54.715Z,5.32
2023-08-12T18:18:21.497Z,5.32
2023-08-12T18:20:48.361Z,7.28
2023-08-12T18:23:15.127Z,8.70
2023-08-12T18:25:41.872Z,5.53
2023-08-12T18:28:08.939Z,6.70
2023-08-12T18:30:35.803Z,8.32
2023-08-12T18:33:04.781Z,6.53
2023-08-12T18:35:31.596Z,4.78
2023-08-12T18:37:58.290Z,6.65
2023-08-12T18:40:25.024Z,5.43
2023-08-12T18:42:51.763Z,6.38
2023-08-12T18:45:18.677Z,7.15
2023-08-12T18:47:45.472Z,6.05
2023-08-12T18:50:12.258Z,6.75
2023-08-12T18:52:39.533Z,5.22
2023-08-12T18:55:08.780Z,8.52
2023-08-12T18:57:35.608Z,8.85
2023-08-12T19:00:02.403Z,16.63
2023-08-12T19:02:29.304Z,9.80
2023-08-12T19:04:56.078Z,6.65
2023-08-12T19:07:22.840Z,5.22
2023-08-12T19:09:49.566Z,5.45
2023-08-12T19:12:16.576Z,6.70
2023-08-12T19:14:43.469Z,6.00
2023-08-12T19:17:10.194Z,5.40
2023-08-12T19:19:37.400Z,6.43
2023-08-12T19:22:04.552Z,6.60
2023-08-12T19:24:31.303Z,14.10
2023-08-12T19:26:58.456Z,6.40
2023-08-12T19:29:25.207Z,7.20
2023-08-12T19:31:52.162Z,6.55
2023-08-12T19:34:19.615Z,7.40
2023-08-12T19:36:46.295Z,6.93
2023-08-12T19:39:13.155Z,6.53
2023-08-12T19:41:39.863Z,6.53
2023-08-12T19:44:06.625Z,6.35
2023-08-12T19:46:33.414Z,6.78
2023-08-12T19:49:00.157Z,6.07
2023-08-12T19:51:26.930Z,5.70
2023-08-12T19:53:53.734Z,6.18
2023-08-12T19:56:20.442Z,6.07
2023-08-12T19:58:47.201Z,5.15
2023-08-12T20:01:13.969Z,7.38
2023-08-12T20:03:40.817Z,5.85
2023-08-12T20:06:07.590Z,5.70
2023-08-12T20:08:34.561Z,4.35
2023-08-12T20:11:01.874Z,5.05
2023-08-12T20:13:28.562Z,4.07
2023-08-12T20:15:59.050Z,4.43
2023-08-12T20:18:26.674Z,5.47
2023-08-12T20:20:53.868Z,5.25
2023-08-12T20:23:20.957Z,5.88
2023-08-12T20:25:47.833Z,4.90
2023-08-12T20:28:14.512Z,5.05
2023-08-12T20:30:41.228Z,5.57
2023-08-12T20:33:08.017Z,5.40
2023-08-12T20:35:34.906Z,4.00
2023-08-12T20:38:01.778Z,7.30
2023-08-12T20:40:28.566Z,4.43
2023-08-12T20:42:55.264Z,5.93
2023-08-12T20:45:22.362Z,4.72
2023-08-12T20:47:49.098Z,5.40
2023-08-12T20:50:15.869Z,6.63
2023-08-12T20:52:42.977Z,5.43
2023-08-12T20:55:10.021Z,5.50
2023-08-12T20:57:36.751Z,6.78
2023-08-12T21:00:04.870Z,5.60
2023-08-12T21:02:31.650Z,5.13
2023-08-12T21:04:58.517Z,5.70
2023-08-12T21:07:25.722Z,5.03
2023-08-12T21:09:52.484Z,5.10
2023-08-12T21:12:19.243Z,4.68
2023-08-12T21:14:45.944Z,4.55
2023-08-12T21:17:12.643Z,3.97
2023-08-12T21:19:39.437Z,4.25
2023-08-12T21:22:06.196Z,4.10
2023-08-12T21:24:32.914Z,3.75
2023-08-12T21:26:59.685Z,5.65
2023-08-12T21:29:26.400Z,4.38
2023-08-12T21:31:53.145Z,4.35
2023-08-12T21:34:19.898Z,4.00
2023-08-12T21:36:46.665Z,3.95
2023-08-12T21:39:13.459Z,4.65
2023-08-12T21:41:40.180Z,4.82
2023-08-12T21:44:07.114Z,5.80
2023-08-12T21:46:33.792Z,5.60
2023-08-12T21:49:00.483Z,5.38
2023-08-12T21:51:27.252Z,5.85
2023-08-12T21:53:54.042Z,7.45
2023-08-12T21:56:20.808Z,5.78
2023-08-12T21:58:47.823Z,6.75
2023-08-12T22:01:14.846Z,6.70
2023-08-12T22:03:41.576Z,6.28
2023-08-12T22:06:08.614Z,6.45
2023-08-12T22:08:35.449Z,6.65
2023-08-12T22:11:02.174Z,6.55
2023-08-12T22:13:28.927Z,6.88
2023-08-12T22:15:55.683Z,6.30
2023-08-12T22:18:22.443Z,5.82
2023-08-12T22:20:50.924Z,6.50
2023-08-12T22:23:18.451Z,6.75
2023-08-12T22:25:46.115Z,6.38
2023-08-12T22:28:12.819Z,6.40
2023-08-12T22:30:39.631Z,5.63
2023-08-12T22:33:07.376Z,7.03
2023-08-12T22:35:34.144Z,6.47
2023-08-12T22:38:00.927Z,5.80
2023-08-12T22:40:27.659Z,6.20
2023-08-12T22:42:54.357Z,5.15
2023-08-12T22:45:21.240Z,5.75
2023-08-12T22:47:48.099Z,5.78
2023-08-12T22:50:15.101Z,5.68
2023-08-12T22:52:42.880Z,5.82
2023-08-12T22:55:09.808Z,5.57
2023-08-12T22:57:36.625Z,6.18
2023-08-12T23:00:04.653Z,5.70
2023-08-12T23:02:32.315Z,6.03
2023-08-12T23:04:59.741Z,5.78
2023-08-12T23:07:26.738Z,5.53
2023-08-12T23:09:53.955Z,5.70
2023-08-12T23:12:20.783Z,6.90
2023-08-12T23:14:47.575Z,5.78
2023-08-12T23:17:14.293Z,5.47
2023-08-12T23:19:41.028Z,4.97
2023-08-12T23:22:07.735Z,5.38
2023-08-12T23:24:34.505Z,5.05
2023-08-12T23:27:01.185Z,5.25
2023-08-12T23:29:27.897Z,5.20
2023-08-12T23:31:54.617Z,5.53
2023-08-12T23:34:21.325Z,6.32
2023-08-12T23:36:48.106Z,7.03
2023-08-12T23:39:14.854Z,5.60
2023-08-12T23:41:41.540Z,5.57
2023-08-12T23:44:08.274Z,5.70
2023-08-12T23:46:35.175Z,6.25
2023-08-12T23:49:02.066Z,5.68
2023-08-12T23:51:28.801Z,5.68
2023-08-12T23:53:55.579Z,5.63
2023-08-12T23:56:22.355Z,6.47
2023-08-12T23:58:49.007Z,6.03
